Time;durP1;ratioP1;P1;durP2;ratioP2;P2;SDS_P1;SDS_P2;PMS_P1;PMS_P2;Temp;Humidity;BMP_temperature;BMP_pressure;BME280_temperature;BME280_humidity;BME280_pressure;Samples;Min_cycle;Max_cycle;Signal;HPM_P1;HPM_P2
2022/08/01 00:00:32;;;;;;;;;;;22.40;99.90;;;;;;5070931;28;19913;-75
2022/08/01 00:02:58;;;;;;;;;;;22.50;99.90;;;;;;5071000;28;19971;-76
2022/08/01 00:05:23;;;;;;;;;;;22.50;99.90;;;;;;5070843;28;19931;-75
2022/08/01 00:07:49;;;;;;;;;;;22.50;99.90;;;;;;5070446;28;19909;-76
2022/08/01 00:10:15;;;;;;;;;;;22.60;99.90;;;;;;5070190;28;19958;-76
2022/08/01 00:12:41;;;;;;;;;;;22.70;99.90;;;;;;5070056;28;20042;-76
2022/08/01 00:15:08;;;;;;;;;;;22.70;99.90;;;;;;5070549;28;19938;-76
2022/08/01 00:17:33;;;;;;;;;;;22.80;99.90;;;;;;5070455;28;20355;-75
2022/08/01 00:19:59;;;;;;;;;;;22.90;99.90;;;;;;5070920;28;19920;-75
2022/08/01 00:22:25;;;;;;;;;;;22.90;99.90;;;;;;5070446;28;20295;-76
2022/08/01 00:24:50;;;;;;;;;;;22.90;99.90;;;;;;5070653;28;19932;-76
2022/08/01 00:27:16;;;;;;;;;;;22.90;99.90;;;;;;5070179;28;20007;-76
2022/08/01 00:29:42;;;;;;;;;;;22.80;99.90;;;;;;5070436;28;19913;-75
2022/08/01 00:32:07;;;;;;;;;;;22.70;99.90;;;;;;5070368;28;20385;-75
2022/08/01 00:34:33;;;;;;;;;;;22.70;99.90;;;;;;5073923;28;20321;-76
2022/08/01 00:36:59;;;;;;;;;;;22.80;99.90;;;;;;5073430;28;19915;-76
2022/08/01 00:39:24;;;;;;;;;;;22.80;99.90;;;;;;5074407;28;19919;-75
2022/08/01 00:41:50;;;;;;;;;;;22.80;99.90;;;;;;5074123;28;19955;-75
2022/08/01 00:44:15;;;;;;;;;;;22.70;99.90;;;;;;5074199;28;19955;-76
2022/08/01 00:46:41;;;;;;;;;;;22.70;99.90;;;;;;5074119;28;19909;-75
2022/08/01 00:49:07;;;;;;;;;;;22.80;99.90;;;;;;5074148;28;19948;-75
2022/08/01 00:51:33;;;;;;;;;;;22.80;99.90;;;;;;5074048;28;19908;-76
2022/08/01 00:53:59;;;;;;;;;;;22.80;99.90;;;;;;5073849;28;19908;-76
2022/08/01 00:56:25;;;;;;;;;;;22.80;99.90;;;;;;5073507;28;20421;-75
2022/08/01 00:58:51;;;;;;;;;;;22.70;99.90;;;;;;5073792;28;19958;-76
2022/08/01 01:01:17;;;;;;;;;;;22.60;99.90;;;;;;5073659;28;19948;-75
2022/08/01 01:03:43;;;;;;;;;;;22.50;99.90;;;;;;5073780;28;19989;-75
2022/08/01 01:06:24;;;;;;;;;;;22.50;99.90;;;;;;5073540;28;19920;-75
2022/08/01 01:09:10;;;;;;;;;;;22.50;99.90;;;;;;5073728;28;19908;-76
2022/08/01 01:11:54;;;;;;;;;;;22.30;99.90;;;;;;5066463;28;19909;-76
2022/08/01 01:14:27;;;;;;;;;;;22.20;99.90;;;;;;5073641;28;19932;-76
2022/08/01 01:16:53;;;;;;;;;;;22.20;99.90;;;;;;5073346;28;19931;-76
2022/08/01 01:19:23;;;;;;;;;;;22.20;99.90;;;;;;5073489;28;19928;-76
2022/08/01 01:21:51;;;;;;;;;;;22.10;99.90;;;;;;5073243;28;19983;-75
2022/08/01 01:24:36;;;;;;;;;;;22.20;99.90;;;;;;5073260;28;19916;-76
2022/08/01 01:27:10;;;;;;;;;;;22.10;99.90;;;;;;5072809;28;19974;-76
2022/08/01 01:29:39;;;;;;;;;;;22.10;99.90;;;;;;5073348;28;20279;-75
2022/08/01 01:32:05;;;;;;;;;;;22.10;99.90;;;;;;5072702;28;19916;-75
2022/08/01 01:34:34;;;;;;;;;;;22.10;99.90;;;;;;5072994;28;20276;-76
2022/08/01 01:37:01;;;;;;;;;;;22.10;99.90;;;;;;5072655;28;19973;-76
2022/08/01 01:39:28;;;;;;;;;;;22.00;99.90;;;;;;5072727;28;20010;-76
2022/08/01 01:41:54;;;;;;;;;;;22.00;99.90;;;;;;5072735;28;20321;-76
2022/08/01 01:44:20;;;;;;;;;;;22.00;99.90;;;;;;5072310;28;19908;-76
2022/08/01 01:46:47;;;;;;;;;;;22.00;99.90;;;;;;5072406;28;19916;-76
2022/08/01 01:49:13;;;;;;;;;;;21.90;99.90;;;;;;5072780;28;19916;-76
2022/08/01 01:51:41;;;;;;;;;;;21.90;99.90;;;;;;5072668;28;19909;-76
2022/08/01 01:54:08;;;;;;;;;;;21.90;99.90;;;;;;5072792;28;19909;-76
2022/08/01 01:56:34;;;;;;;;;;;21.90;99.90;;;;;;5072649;28;19990;-76
2022/08/01 01:59:01;;;;;;;;;;;21.90;99.90;;;;;;5072301;28;20334;-75
2022/08/01 02:01:29;;;;;;;;;;;21.80;99.90;;;;;;5072843;28;19935;-75
2022/08/01 02:03:56;;;;;;;;;;;21.90;99.90;;;;;;5072544;28;19962;-75
2022/08/01 02:06:23;;;;;;;;;;;21.80;99.90;;;;;;5072561;28;19916;-76
2022/08/01 02:08:50;;;;;;;;;;;21.80;99.90;;;;;;5072354;28;20323;-76
2022/08/01 02:11:18;;;;;;;;;;;21.70;99.90;;;;;;5072329;28;20387;-76
2022/08/01 02:13:46;;;;;;;;;;;21.80;99.90;;;;;;5072393;28;19909;-76
2022/08/01 02:16:13;;;;;;;;;;;21.80;99.90;;;;;;5072248;28;20007;-76
2022/08/01 02:18:39;;;;;;;;;;;21.80;99.90;;;;;;5072310;28;19995;-75
2022/08/01 02:21:08;;;;;;;;;;;21.70;99.90;;;;;;5072354;28;19934;-76
2022/08/01 02:23:35;;;;;;;;;;;21.70;99.90;;;;;;5072228;28;19908;-76
2022/08/01 02:26:02;;;;;;;;;;;21.70;99.90;;;;;;5072068;28;20272;-75
2022/08/01 02:28:30;;;;;;;;;;;21.70;99.90;;;;;;5072205;28;19908;-76
2022/08/01 02:30:58;;;;;;;;;;;21.70;99.90;;;;;;5072329;28;20061;-76
2022/08/01 02:33:27;;;;;;;;;;;21.70;99.90;;;;;;5071810;28;19923;-76
2022/08/01 02:35:55;;;;;;;;;;;21.70;99.90;;;;;;5071806;28;19927;-75
2022/08/01 02:38:23;;;;;;;;;;;21.60;99.90;;;;;;5071727;28;19912;-76
2022/08/01 02:40:50;;;;;;;;;;;21.60;99.90;;;;;;5071594;28;19997;-76
2022/08/01 02:43:18;;;;;;;;;;;21.60;99.90;;;;;;5071845;28;19909;-76
2022/08/01 02:45:47;;;;;;;;;;;21.60;99.90;;;;;;5071633;28;19908;-76
2022/08/01 02:48:13;;;;;;;;;;;21.50;99.90;;;;;;5071190;28;19908;-76
2022/08/01 02:50:41;;;;;;;;;;;21.50;99.90;;;;;;5071979;28;20329;-75
2022/08/01 02:53:09;;;;;;;;;;;21.50;99.90;;;;;;5071764;28;20280;-75
2022/08/01 02:55:37;;;;;;;;;;;21.50;99.90;;;;;;5071116;28;19908;-75
2022/08/01 02:58:02;;;;;;;;;;;21.50;99.90;;;;;;5071159;28;19956;-75
2022/08/01 03:00:30;;;;;;;;;;;21.50;99.90;;;;;;5071808;28;19951;-75
2022/08/01 03:02:56;;;;;;;;;;;21.50;99.90;;;;;;5071147;28;20372;-75
2022/08/01 03:05:23;;;;;;;;;;;21.50;99.90;;;;;;5071504;28;19913;-76
2022/08/01 03:07:49;;;;;;;;;;;21.60;99.90;;;;;;5070836;28;20326;-76
2022/08/01 03:10:15;;;;;;;;;;;21.70;99.90;;;;;;5071415;28;19916;-75
2022/08/01 03:12:42;;;;;;;;;;;21.60;99.90;;;;;;5071029;28;19913;-76
2022/08/01 03:15:09;;;;;;;;;;;21.60;99.90;;;;;;5071133;28;19916;-75
2022/08/01 03:17:35;;;;;;;;;;;21.60;99.90;;;;;;5070896;28;20264;-76
2022/08/01 03:20:02;;;;;;;;;;;21.60;99.90;;;;;;5071126;28;20353;-75
2022/08/01 03:22:29;;;;;;;;;;;21.50;99.90;;;;;;5071296;28;19912;-76
2022/08/01 03:24:56;;;;;;;;;;;21.60;99.90;;;;;;5071135;28;20285;-76
2022/08/01 03:27:24;;;;;;;;;;;21.50;99.90;;;;;;5071133;28;20308;-76
2022/08/01 03:29:50;;;;;;;;;;;21.50;99.90;;;;;;5070630;28;20015;-76
2022/08/01 03:32:16;;;;;;;;;;;21.50;99.90;;;;;;5070707;28;20280;-75
2022/08/01 03:34:42;;;;;;;;;;;21.60;99.90;;;;;;5070159;28;19919;-76
2022/08/01 03:37:11;;;;;;;;;;;21.60;99.90;;;;;;5070291;28;19987;-76
2022/08/01 03:39:43;;;;;;;;;;;21.60;99.90;;;;;;5070121;28;19970;-76
2022/08/01 03:42:13;;;;;;;;;;;21.60;99.90;;;;;;5070249;28;19915;-75
2022/08/01 03:44:41;;;;;;;;;;;21.70;99.90;;;;;;5070616;28;19912;-76
2022/08/01 03:47:08;;;;;;;;;;;21.70;99.90;;;;;;5078629;28;19999;-76
2022/08/01 03:49:44;;;;;;;;;;;21.80;99.90;;;;;;5087500;28;19951;-75
2022/08/01 03:52:10;;;;;;;;;;;21.80;99.90;;;;;;5087121;28;19908;-76
2022/08/01 03:54:39;;;;;;;;;;;21.70;99.90;;;;;;5090929;28;20316;-76
2022/08/01 03:57:05;;;;;;;;;;;21.70;99.90;;;;;;5090692;28;19958;-76
2022/08/01 03:59:31;;;;;;;;;;;21.70;99.90;;;;;;5090600;28;19912;-76
2022/08/01 04:01:57;;;;;;;;;;;21.80;99.90;;;;;;5091308;28;19908;-76
2022/08/01 04:04:23;;;;;;;;;;;21.70;99.90;;;;;;5090774;28;20279;-75
2022/08/01 04:06:50;;;;;;;;;;;21.70;99.90;;;;;;5090699;28;19916;-77
2022/08/01 04:09:16;;;;;;;;;;;21.60;99.90;;;;;;5093946;28;20011;-76
2022/08/01 04:11:42;;;;;;;;;;;21.50;99.90;;;;;;5095449;28;19959;-76
2022/08/01 04:14:07;;;;;;;;;;;21.50;99.90;;;;;;5095431;28;19915;-76
2022/08/01 04:16:34;;;;;;;;;;;21.60;99.90;;;;;;5094686;28;19908;-76
2022/08/01 04:18:59;;;;;;;;;;;21.70;99.90;;;;;;5094752;28;19916;-76
2022/08/01 04:21:30;;;;;;;;;;;21.70;99.90;;;;;;5094801;28;20387;-77
2022/08/01 04:23:58;;;;;;;;;;;21.70;99.90;;;;;;5094916;28;20293;-76
2022/08/01 04:26:24;;;;;;;;;;;21.80;99.90;;;;;;5094480;28;20130;-76
2022/08/01 04:28:51;;;;;;;;;;;21.90;99.90;;;;;;5094655;28;19908;-76
2022/08/01 04:31:18;;;;;;;;;;;21.90;99.90;;;;;;5095511;28;19908;-76
2022/08/01 04:33:47;;;;;;;;;;;22.00;99.90;;;;;;5094587;28;19952;-76
2022/08/01 04:36:14;;;;;;;;;;;22.00;99.90;;;;;;5094376;28;19934;-76
2022/08/01 04:38:42;;;;;;;;;;;22.00;99.90;;;;;;5094348;28;19935;-76
2022/08/01 04:41:09;;;;;;;;;;;22.00;99.90;;;;;;5094641;28;19960;-76
2022/08/01 04:43:36;;;;;;;;;;;22.10;99.90;;;;;;5094540;28;19931;-76
2022/08/01 04:46:03;;;;;;;;;;;22.10;99.90;;;;;;5093758;28;20327;-76
2022/08/01 04:48:29;;;;;;;;;;;22.20;99.90;;;;;;5093958;28;20045;-75
2022/08/01 04:50:55;;;;;;;;;;;22.10;99.90;;;;;;5094183;28;20011;-76
2022/08/01 04:53:23;;;;;;;;;;;22.10;99.90;;;;;;5094015;28;20503;-75
2022/08/01 04:55:49;;;;;;;;;;;22.10;99.90;;;;;;5094076;28;20286;-76
2022/08/01 04:58:15;;;;;;;;;;;22.20;99.90;;;;;;5093697;28;20029;-76
2022/08/01 05:00:41;;;;;;;;;;;22.20;99.90;;;;;;5094302;28;19909;-76
2022/08/01 05:03:06;;;;;;;;;;;22.10;99.90;;;;;;5093898;28;20170;-76
2022/08/01 05:05:32;;;;;;;;;;;22.20;99.90;;;;;;5093967;28;19908;-76
2022/08/01 05:07:58;;;;;;;;;;;22.20;99.90;;;;;;5094355;28;20256;-76
2022/08/01 05:10:27;;;;;;;;;;;22.20;99.90;;;;;;5093891;28;19912;-76
2022/08/01 05:12:53;;;;;;;;;;;22.30;99.90;;;;;;5094035;28;20287;-76
2022/08/01 05:15:18;;;;;;;;;;;22.20;99.90;;;;;;5093955;28;19914;-76
2022/08/01 05:17:44;;;;;;;;;;;22.10;99.90;;;;;;5093530;28;19908;-76
2022/08/01 05:20:11;;;;;;;;;;;22.10;99.90;;;;;;5093538;28;20322;-75
2022/08/01 05:22:37;;;;;;;;;;;22.10;99.90;;;;;;5093761;28;20348;-76
2022/08/01 05:25:04;;;;;;;;;;;22.00;99.90;;;;;;5093587;28;19947;-76
2022/08/01 05:27:30;;;;;;;;;;;22.00;99.90;;;;;;5093547;28;19908;-76
2022/08/01 05:29:56;;;;;;;;;;;22.10;99.90;;;;;;5093527;28;19957;-75
2022/08/01 05:32:21;;;;;;;;;;;22.20;99.90;;;;;;5093797;28;19923;-76
2022/08/01 05:34:47;;;;;;;;;;;22.20;99.90;;;;;;5093455;28;20388;-76
2022/08/01 05:37:13;;;;;;;;;;;22.20;99.90;;;;;;5093006;28;19908;-76
2022/08/01 05:39:38;;;;;;;;;;;22.30;99.90;;;;;;5093497;28;19912;-75
2022/08/01 05:42:04;;;;;;;;;;;22.30;99.90;;;;;;5093519;28;19908;-75
2022/08/01 05:44:30;;;;;;;;;;;22.30;99.90;;;;;;5093331;28;19908;-76
2022/08/01 05:46:55;;;;;;;;;;;22.40;99.90;;;;;;5092205;28;19908;-76
2022/08/01 05:49:21;;;;;;;;;;;22.40;99.90;;;;;;5092843;28;20009;-76
2022/08/01 05:51:46;;;;;;;;;;;22.50;99.90;;;;;;5093026;28;19908;-76
2022/08/01 05:54:15;;;;;;;;;;;22.50;99.90;;;;;;5093268;28;19908;-75
2022/08/01 05:56:41;;;;;;;;;;;22.60;99.90;;;;;;5092649;28;19916;-76
2022/08/01 05:59:06;;;;;;;;;;;22.60;99.90;;;;;;5092982;28;20367;-75
2022/08/01 06:01:32;;;;;;;;;;;22.70;99.90;;;;;;5093040;28;20003;-75
2022/08/01 06:03:58;;;;;;;;;;;22.70;99.90;;;;;;5092980;28;19915;-76
2022/08/01 06:06:23;;;;;;;;;;;22.80;99.90;;;;;;5092700;28;20370;-75
2022/08/01 06:08:49;;;;;;;;;;;22.80;99.90;;;;;;5092635;28;19957;-75
2022/08/01 06:11:15;;;;;;;;;;;22.80;99.90;;;;;;5094366;28;19908;-75
2022/08/01 06:13:40;;;;;;;;;;;23.00;99.90;;;;;;5092735;28;19934;-76
2022/08/01 06:16:06;;;;;;;;;;;23.10;99.90;;;;;;5092367;28;19957;-77
2022/08/01 06:18:32;;;;;;;;;;;23.10;99.90;;;;;;5092159;28;19916;-77
2022/08/01 06:20:57;;;;;;;;;;;23.10;99.90;;;;;;5092718;28;19909;-77
2022/08/01 06:23:23;;;;;;;;;;;23.10;99.90;;;;;;5092488;28;19908;-77
2022/08/01 06:25:51;;;;;;;;;;;23.00;99.90;;;;;;5092113;28;19908;-77
2022/08/01 06:28:17;;;;;;;;;;;23.10;99.90;;;;;;5092599;28;20194;-77
2022/08/01 06:30:43;;;;;;;;;;;23.10;99.90;;;;;;5092146;28;19948;-76
2022/08/01 06:33:08;;;;;;;;;;;23.30;99.90;;;;;;5092172;28;19975;-76
2022/08/01 06:35:34;;;;;;;;;;;23.40;99.90;;;;;;5093130;28;19912;-76
2022/08/01 06:38:00;;;;;;;;;;;23.40;99.90;;;;;;5092110;28;19911;-77
2022/08/01 06:40:26;;;;;;;;;;;23.40;99.90;;;;;;5092224;28;20054;-75
2022/08/01 06:42:51;;;;;;;;;;;23.50;99.90;;;;;;5092495;28;19965;-77
2022/08/01 06:45:17;;;;;;;;;;;23.60;99.90;;;;;;5091959;28;19908;-77
2022/08/01 06:47:44;;;;;;;;;;;23.60;99.90;;;;;;5108696;28;19908;-76
2022/08/01 06:50:09;;;;;;;;;;;23.60;99.90;;;;;;5091625;28;20286;-77
2022/08/01 06:52:35;;;;;;;;;;;23.60;99.90;;;;;;5091746;28;19908;-76
2022/08/01 06:55:01;;;;;;;;;;;23.60;99.90;;;;;;5092035;28;19919;-77
2022/08/01 06:57:27;;;;;;;;;;;23.50;99.90;;;;;;5091422;28;19908;-77
2022/08/01 06:59:53;;;;;;;;;;;23.50;99.90;;;;;;5091867;28;19912;-76
2022/08/01 07:02:18;;;;;;;;;;;23.50;99.90;;;;;;5091052;28;19963;-75
2022/08/01 07:04:44;;;;;;;;;;;23.70;99.90;;;;;;5091903;28;19908;-76
2022/08/01 07:07:09;;;;;;;;;;;23.80;99.90;;;;;;5091390;28;19908;-76
2022/08/01 07:09:35;;;;;;;;;;;23.80;99.90;;;;;;5091844;28;19908;-77
2022/08/01 07:12:01;;;;;;;;;;;24.00;99.90;;;;;;5084953;28;19913;-76
2022/08/01 07:14:26;;;;;;;;;;;24.10;99.90;;;;;;5088013;28;20291;-76
2022/08/01 07:16:52;;;;;;;;;;;24.20;99.90;;;;;;5082500;28;19915;-75
2022/08/01 07:19:18;;;;;;;;;;;24.20;99.90;;;;;;5091170;28;19963;-75
2022/08/01 07:21:43;;;;;;;;;;;24.30;99.90;;;;;;5090882;28;20007;-75
2022/08/01 07:24:10;;;;;;;;;;;24.40;99.90;;;;;;5090915;28;19908;-76
2022/08/01 07:26:35;;;;;;;;;;;24.50;99.90;;;;;;5089328;28;19908;-76
2022/08/01 07:29:02;;;;;;;;;;;24.60;99.90;;;;;;5079696;28;20069;-75
2022/08/01 07:31:28;;;;;;;;;;;24.60;99.90;;;;;;5074299;28;19909;-75
2022/08/01 07:33:53;;;;;;;;;;;24.60;99.90;;;;;;5071106;28;20291;-75
2022/08/01 07:36:19;;;;;;;;;;;24.50;99.90;;;;;;5070564;28;19908;-75
2022/08/01 07:38:45;;;;;;;;;;;24.40;99.90;;;;;;5070781;28;19912;-76
2022/08/01 07:41:11;;;;;;;;;;;24.40;99.90;;;;;;5070374;28;19931;-76
2022/08/01 07:43:36;;;;;;;;;;;24.50;99.90;;;;;;5069420;28;19908;-76
2022/08/01 07:46:06;;;;;;;;;;;24.70;99.90;;;;;;5070276;28;19909;-76
2022/08/01 07:48:31;;;;;;;;;;;25.00;99.90;;;;;;5069813;28;19908;-74
2022/08/01 07:50:57;;;;;;;;;;;25.10;99.90;;;;;;5069723;28;19909;-76
2022/08/01 07:53:22;;;;;;;;;;;25.00;99.90;;;;;;5069674;28;20268;-76
2022/08/01 07:55:48;;;;;;;;;;;25.00;99.90;;;;;;5070262;28;19908;-76
2022/08/01 07:58:14;;;;;;;;;;;25.00;99.90;;;;;;5069993;28;19962;-75
2022/08/01 08:00:40;;;;;;;;;;;25.00;99.90;;;;;;5070194;28;19947;-74
2022/08/01 08:03:05;;;;;;;;;;;25.00;99.90;;;;;;5070236;28;20367;-76
2022/08/01 08:05:32;;;;;;;;;;;24.90;99.90;;;;;;5070222;28;19963;-76
2022/08/01 08:07:58;;;;;;;;;;;25.10;99.90;;;;;;5070077;28;19913;-75
2022/08/01 08:10:23;;;;;;;;;;;26.30;99.90;;;;;;5070188;28;19934;-75
2022/08/01 08:12:49;;;;;;;;;;;27.30;99.90;;;;;;5070077;28;19912;-75
2022/08/01 08:15:15;;;;;;;;;;;28.20;99.90;;;;;;5069679;28;19947;-75
2022/08/01 08:17:40;;;;;;;;;;;28.90;99.90;;;;;;5069711;28;19999;-75
2022/08/01 08:20:06;;;;;;;;;;;28.70;99.90;;;;;;5069896;28;20386;-76
2022/08/01 08:22:32;;;;;;;;;;;29.60;99.90;;;;;;5070309;28;20409;-75
2022/08/01 08:24:58;;;;;;;;;;;29.30;99.90;;;;;;5069617;28;20007;-76
2022/08/01 08:27:23;;;;;;;;;;;28.60;99.90;;;;;;5069698;28;20386;-76
2022/08/01 08:29:49;;;;;;;;;;;28.20;99.90;;;;;;5069942;28;19909;-76
2022/08/01 08:32:15;;;;;;;;;;;28.10;99.90;;;;;;5069678;28;19924;-76
2022/08/01 08:34:40;;;;;;;;;;;27.80;99.90;;;;;;5069558;28;19909;-76
2022/08/01 08:37:07;;;;;;;;;;;27.40;99.90;;;;;;5075329;28;19917;-75
2022/08/01 08:39:32;;;;;;;;;;;27.00;99.90;;;;;;5085064;28;19912;-75
2022/08/01 08:42:01;;;;;;;;;;;26.40;99.90;;;;;;5081406;28;19998;-75
2022/08/01 08:44:27;;;;;;;;;;;26.20;99.90;;;;;;5088332;28;19975;-75
2022/08/01 08:46:55;;;;;;;;;;;26.00;99.90;;;;;;5073451;28;19940;-75
2022/08/01 08:49:26;;;;;;;;;;;26.10;99.90;;;;;;5080414;28;19913;-75
2022/08/01 08:51:52;;;;;;;;;;;26.10;99.90;;;;;;5086111;28;19963;-76
2022/08/01 08:54:20;;;;;;;;;;;26.00;99.90;;;;;;5086079;28;19912;-75
2022/08/01 08:56:46;;;;;;;;;;;26.00;99.90;;;;;;5088881;28;20371;-76
2022/08/01 08:59:15;;;;;;;;;;;25.80;99.90;;;;;;5090457;28;20339;-75
2022/08/01 09:01:42;;;;;;;;;;;25.80;99.90;;;;;;5086312;28;19909;-76
2022/08/01 09:04:07;;;;;;;;;;;25.80;99.90;;;;;;5073791;28;20311;-75
2022/08/01 09:06:36;;;;;;;;;;;26.10;99.90;;;;;;5073344;28;19912;-75
2022/08/01 09:09:02;;;;;;;;;;;26.20;99.90;;;;;;5085197;28;19947;-75
2022/08/01 09:11:28;;;;;;;;;;;26.10;99.90;;;;;;5083214;28;20328;-75
2022/08/01 09:14:11;;;;;;;;;;;25.90;99.90;;;;;;5080302;28;19908;-76
2022/08/01 09:16:37;;;;;;;;;;;25.90;99.90;;;;;;5093387;28;19909;-75
2022/08/01 09:19:07;;;;;;;;;;;26.00;99.90;;;;;;5093576;28;19912;-75
2022/08/01 09:21:33;;;;;;;;;;;26.00;99.90;;;;;;5093708;28;19961;-75
2022/08/01 09:24:02;;;;;;;;;;;26.00;99.90;;;;;;5093650;28;20313;-76
2022/08/01 09:26:32;;;;;;;;;;;26.00;99.90;;;;;;5093793;28;19909;-76
2022/08/01 09:28:59;;;;;;;;;;;25.90;99.90;;;;;;5093418;28;19908;-74
2022/08/01 09:31:26;;;;;;;;;;;25.80;99.90;;;;;;5093393;28;19908;-76
2022/08/01 09:33:52;;;;;;;;;;;25.70;99.90;;;;;;5093541;28;19916;-76
2022/08/01 09:36:18;;;;;;;;;;;25.80;99.90;;;;;;5093239;28;19908;-76
2022/08/01 09:38:44;;;;;;;;;;;26.00;99.90;;;;;;5093045;28;19974;-76
2022/08/01 09:41:11;;;;;;;;;;;26.40;99.90;;;;;;5093137;28;20026;-76
2022/08/01 09:43:37;;;;;;;;;;;26.90;99.90;;;;;;5093023;28;20007;-76
2022/08/01 09:46:10;;;;;;;;;;;27.00;99.90;;;;;;5093032;28;20057;-76
2022/08/01 09:48:39;;;;;;;;;;;27.00;99.90;;;;;;5093560;28;20355;-76
2022/08/01 09:51:05;;;;;;;;;;;27.10;99.90;;;;;;5092973;28;19909;-76
2022/08/01 09:53:45;;;;;;;;;;;27.10;99.90;;;;;;5093261;28;19910;-76
2022/08/01 09:56:11;;;;;;;;;;;27.50;99.90;;;;;;5080654;28;19915;-76
2022/08/01 09:58:49;;;;;;;;;;;28.10;99.90;;;;;;5081156;28;20025;-76
2022/08/01 10:01:14;;;;;;;;;;;29.20;99.90;;;;;;5104992;28;19908;-76
2022/08/01 10:03:40;;;;;;;;;;;29.70;99.90;;;;;;5072714;28;19909;-77
2022/08/01 10:06:21;;;;;;;;;;;29.70;99.90;;;;;;5071502;28;20383;-76
2022/08/01 10:08:47;;;;;;;;;;;29.40;99.90;;;;;;5082041;28;19935;-76
2022/08/01 10:11:13;;;;;;;;;;;29.00;99.90;;;;;;5085041;28;19908;-76
2022/08/01 10:13:39;;;;;;;;;;;28.60;99.90;;;;;;5088884;28;19916;-76
2022/08/01 10:16:05;;;;;;;;;;;29.00;99.90;;;;;;5084365;28;19989;-76
2022/08/01 10:18:32;;;;;;;;;;;29.20;99.90;;;;;;5084119;28;19912;-75
2022/08/01 10:21:01;;;;;;;;;;;29.20;99.90;;;;;;5092492;28;20337;-76
2022/08/01 10:23:29;;;;;;;;;;;29.90;99.90;;;;;;5092580;28;19908;-76
2022/08/01 10:25:55;;;;;;;;;;;30.80;99.90;;;;;;5092236;28;19916;-77
2022/08/01 10:28:21;;;;;;;;;;;30.80;99.90;;;;;;5092045;28;19912;-76
2022/08/01 10:30:47;;;;;;;;;;;30.40;99.90;;;;;;5091155;28;19954;-76
2022/08/01 10:33:13;;;;;;;;;;;30.10;99.90;;;;;;5082502;28;19923;-75
2022/08/01 10:35:39;;;;;;;;;;;29.30;99.90;;;;;;5088077;28;20367;-76
2022/08/01 10:38:05;;;;;;;;;;;29.00;99.90;;;;;;5087647;28;19915;-76
2022/08/01 10:40:31;;;;;;;;;;;28.70;99.90;;;;;;5091629;28;19912;-75
2022/08/01 10:42:57;;;;;;;;;;;29.20;99.90;;;;;;5086030;28;20004;-76
2022/08/01 10:45:25;;;;;;;;;;;29.70;99.90;;;;;;5092237;28;19999;-75
2022/08/01 10:47:50;;;;;;;;;;;29.90;99.90;;;;;;5092069;28;20287;-75
2022/08/01 10:50:37;;;;;;;;;;;30.20;99.90;;;;;;5092256;28;19915;-76
2022/08/01 10:53:06;;;;;;;;;;;31.00;99.90;;;;;;5092368;28;19914;-75
2022/08/01 10:55:45;;;;;;;;;;;31.20;99.90;;;;;;5091887;28;19955;-75
2022/08/01 10:58:10;;;;;;;;;;;31.00;99.90;;;;;;5108751;28;19908;-76
2022/08/01 11:00:36;;;;;;;;;;;30.70;99.90;;;;;;5091933;28;19908;-75
2022/08/01 11:03:03;;;;;;;;;;;29.80;99.90;;;;;;5092121;28;19981;-75
2022/08/01 11:05:34;;;;;;;;;;;29.30;99.90;;;;;;5091814;28;20008;-75
2022/08/01 11:08:10;;;;;;;;;;;29.00;99.90;;;;;;5091745;28;19908;-76
2022/08/01 11:10:35;;;;;;;;;;;28.90;99.90;;;;;;5091869;28;20003;-76
2022/08/01 11:13:03;;;;;;;;;;;28.70;99.90;;;;;;5092045;28;19996;-75
2022/08/01 11:15:29;;;;;;;;;;;28.50;99.90;;;;;;5091724;28;19908;-75
2022/08/01 11:17:55;;;;;;;;;;;28.20;99.90;;;;;;5091538;28;20399;-75
2022/08/01 11:20:25;;;;;;;;;;;28.30;99.90;;;;;;5091506;28;19916;-76
2022/08/01 11:23:06;;;;;;;;;;;28.30;99.90;;;;;;5091683;28;19999;-76
2022/08/01 11:25:38;;;;;;;;;;;28.30;99.90;;;;;;5091472;28;19912;-75
2022/08/01 11:28:16;;;;;;;;;;;28.40;99.90;;;;;;5091654;28;19908;-76
2022/08/01 11:30:51;;;;;;;;;;;28.40;99.90;;;;;;5091557;28;20406;-75
2022/08/01 11:33:19;;;;;;;;;;;28.40;99.90;;;;;;5091508;28;19966;-75
2022/08/01 11:36:03;;;;;;;;;;;28.50;99.90;;;;;;5091561;28;20030;-75
2022/08/01 11:38:30;;;;;;;;;;;28.80;99.90;;;;;;5091241;28;20011;-74
2022/08/01 11:41:14;;;;;;;;;;;29.00;99.90;;;;;;5091472;28;19915;-75
2022/08/01 11:43:56;;;;;;;;;;;29.10;99.90;;;;;;5091326;28;19916;-75
2022/08/01 11:46:40;;;;;;;;;;;29.00;99.90;;;;;;5091116;28;20294;-75
2022/08/01 11:49:25;;;;;;;;;;;28.80;99.90;;;;;;5091258;28;19908;-75
2022/08/01 11:51:57;;;;;;;;;;;28.70;99.90;;;;;;5091347;28;19962;-75
2022/08/01 11:54:30;;;;;;;;;;;28.60;99.90;;;;;;5091266;28;20371;-75
2022/08/01 11:56:56;;;;;;;;;;;28.70;99.90;;;;;;5091120;28;19908;-75
2022/08/01 11:59:22;;;;;;;;;;;28.60;99.90;;;;;;5091013;28;19912;-75
2022/08/01 12:01:48;;;;;;;;;;;28.50;99.90;;;;;;5091155;28;20402;-76
2022/08/01 12:04:13;;;;;;;;;;;28.70;99.90;;;;;;5091099;28;19915;-76
2022/08/01 12:06:39;;;;;;;;;;;28.80;99.90;;;;;;5091195;28;20010;-75
2022/08/01 12:09:15;;;;;;;;;;;28.60;99.90;;;;;;5091070;28;19908;-76
2022/08/01 12:11:40;;;;;;;;;;;28.60;99.90;;;;;;5091083;28;20405;-75
2022/08/01 12:14:06;;;;;;;;;;;28.50;99.90;;;;;;5090948;28;19908;-75
2022/08/01 12:16:32;;;;;;;;;;;28.40;99.90;;;;;;5090842;28;19954;-75
2022/08/01 12:18:59;;;;;;;;;;;28.40;99.90;;;;;;5090800;28;20369;-75
2022/08/01 12:21:24;;;;;;;;;;;28.20;99.90;;;;;;5090996;28;19908;-76
2022/08/01 12:24:00;;;;;;;;;;;28.30;99.90;;;;;;5090802;28;20283;-76
2022/08/01 12:26:41;;;;;;;;;;;28.50;99.90;;;;;;5090751;28;19908;-75
2022/08/01 12:29:07;;;;;;;;;;;28.90;99.90;;;;;;5089773;28;19955;-75
2022/08/01 12:31:35;;;;;;;;;;;29.30;99.90;;;;;;5094407;28;19969;-76
2022/08/01 12:34:40;;;;;;;;;;;29.70;99.90;;;;;;5094683;28;19973;-76
2022/08/01 12:37:05;;;;;;;;;;;29.30;99.90;;;;;;5033107;28;19947;-76
2022/08/01 12:39:34;;;;;;;;;;;29.30;99.90;;;;;;5016592;28;19921;-75
2022/08/01 12:42:00;;;;;;;;;;;29.20;99.90;;;;;;5051214;28;19909;-75
2022/08/01 12:44:28;;;;;;;;;;;29.10;99.90;;;;;;5094460;28;19908;-76
2022/08/01 12:46:53;;;;;;;;;;;29.00;99.90;;;;;;5088691;28;19913;-76
2022/08/01 12:49:19;;;;;;;;;;;29.00;99.90;;;;;;5074056;28;19965;-76
2022/08/01 12:51:45;;;;;;;;;;;29.10;99.90;;;;;;5073972;28;19995;-76
2022/08/01 12:54:10;;;;;;;;;;;29.20;99.90;;;;;;5073971;28;19908;-76
2022/08/01 12:56:36;;;;;;;;;;;29.20;99.90;;;;;;5073537;28;20315;-75
2022/08/01 12:59:19;;;;;;;;;;;29.30;99.90;;;;;;5073821;28;19912;-76
2022/08/01 13:01:45;;;;;;;;;;;29.10;99.40;;;;;;5073701;28;19912;-75
2022/08/01 13:04:10;;;;;;;;;;;29.20;99.90;;;;;;5074025;28;19912;-75
2022/08/01 13:06:36;;;;;;;;;;;29.40;98.90;;;;;;5073432;28;20421;-76
2022/08/01 13:09:05;;;;;;;;;;;29.10;98.30;;;;;;5073710;28;19908;-76
2022/08/01 13:11:31;;;;;;;;;;;29.10;98.40;;;;;;5073539;28;19909;-75
2022/08/01 13:13:57;;;;;;;;;;;29.00;99.20;;;;;;5073739;28;19909;-75
2022/08/01 13:16:23;;;;;;;;;;;29.10;98.40;;;;;;5073393;28;19947;-75
2022/08/01 13:18:50;;;;;;;;;;;29.20;99.60;;;;;;5073264;28;20420;-76
2022/08/01 13:21:17;;;;;;;;;;;29.20;98.10;;;;;;5073414;28;20016;-75
2022/08/01 13:24:01;;;;;;;;;;;29.10;96.40;;;;;;5073491;28;20530;-75
2022/08/01 13:26:45;;;;;;;;;;;29.10;94.70;;;;;;5073301;28;19999;-76
2022/08/01 13:29:12;;;;;;;;;;;29.00;94.60;;;;;;5073606;28;20322;-78
2022/08/01 13:31:38;;;;;;;;;;;29.20;94.80;;;;;;5073221;28;19923;-75
2022/08/01 13:34:04;;;;;;;;;;;29.30;94.50;;;;;;5073442;28;19909;-75
2022/08/01 13:36:30;;;;;;;;;;;29.60;94.90;;;;;;5081310;28;19912;-76
2022/08/01 13:41:41;;;;;;;;;;;30.20;94.30;;;;;;5073355;28;20354;-75
2022/08/01 13:44:08;;;;;;;;;;;30.20;94.20;;;;;;5089830;28;19943;-75
2022/08/01 13:46:35;;;;;;;;;;;30.30;94.50;;;;;;5089515;28;19916;-75
2022/08/01 13:49:01;;;;;;;;;;;30.10;93.10;;;;;;5089796;28;19916;-75
2022/08/01 13:51:26;;;;;;;;;;;30.10;94.70;;;;;;5089367;28;19909;-75
2022/08/01 13:53:52;;;;;;;;;;;30.00;92.80;;;;;;5089798;28;19916;-75
2022/08/01 13:56:18;;;;;;;;;;;29.80;93.50;;;;;;5089498;28;19959;-75
2022/08/01 13:58:43;;;;;;;;;;;29.50;91.20;;;;;;5089567;28;19913;-75
2022/08/01 14:01:09;;;;;;;;;;;29.50;90.90;;;;;;5089378;28;19934;-76
2022/08/01 14:03:35;;;;;;;;;;;29.70;90.80;;;;;;5089695;28;20398;-76
2022/08/01 14:06:01;;;;;;;;;;;29.80;91.60;;;;;;5089234;28;19922;-75
2022/08/01 14:08:27;;;;;;;;;;;29.90;92.90;;;;;;5089453;28;19908;-76
2022/08/01 14:10:53;;;;;;;;;;;30.00;91.30;;;;;;5089230;28;19912;-76
2022/08/01 14:13:19;;;;;;;;;;;30.10;91.70;;;;;;5089440;28;19962;-75
2022/08/01 14:15:48;;;;;;;;;;;29.90;92.50;;;;;;5088776;28;19908;-75
2022/08/01 14:18:13;;;;;;;;;;;29.90;93.10;;;;;;5089448;28;19952;-76
2022/08/01 14:20:42;;;;;;;;;;;29.90;93.20;;;;;;5088926;28;20496;-75